createdAt,value
2023-03-24T00:03:34.630Z,11.60
2023-03-24T00:08:41.509Z,11.57
2023-03-24T00:13:50.409Z,11.49
2023-03-24T00:18:56.583Z,11.40
2023-03-24T00:24:03.013Z,11.34
2023-03-24T00:29:13.869Z,11.28
2023-03-24T00:34:21.853Z,11.24
2023-03-24T00:39:27.621Z,11.26
2023-03-24T00:44:34.434Z,11.36
2023-03-24T00:49:44.827Z,11.42
2023-03-24T00:54:55.297Z,11.36
2023-03-24T01:00:14.658Z,11.18
2023-03-24T01:05:28.465Z,10.96
2023-03-24T01:10:36.320Z,10.72
2023-03-24T01:15:41.884Z,10.49
2023-03-24T01:20:51.528Z,10.30
2023-03-24T01:25:57.124Z,10.18
2023-03-24T01:31:02.913Z,10.10
2023-03-24T01:36:09.790Z,10.00
2023-03-24T01:41:15.625Z,9.79
2023-03-24T01:46:22.908Z,9.54
2023-03-24T01:51:35.414Z,9.27
2023-03-24T01:56:47.314Z,9.09
2023-03-24T02:02:04.986Z,9.02
2023-03-24T02:07:22.097Z,8.96
2023-03-24T02:12:27.746Z,8.84
2023-03-24T02:17:54.795Z,8.67
2023-03-24T02:23:24.535Z,8.49
2023-03-24T02:28:43.317Z,8.28
2023-03-24T02:34:19.207Z,8.11
2023-03-24T02:39:47.547Z,8.01
2023-03-24T02:45:04.923Z,7.87
2023-03-24T02:50:18.451Z,7.77
2023-03-24T02:55:31.545Z,7.60
2023-03-24T03:00:47.345Z,7.41
2023-03-24T03:06:23.601Z,7.36
2023-03-24T03:11:29.181Z,7.32
2023-03-24T03:16:39.378Z,7.24
2023-03-24T03:21:48.368Z,7.09
2023-03-24T03:27:00.365Z,7.01
2023-03-24T03:32:17.811Z,6.96
2023-03-24T03:37:30.608Z,6.89
2023-03-24T03:42:36.838Z,6.75
2023-03-24T03:47:43.195Z,6.66
2023-03-24T03:52:50.968Z,6.66
2023-03-24T03:57:56.733Z,6.80
2023-03-24T04:03:39.300Z,6.91
2023-03-24T04:08:50.965Z,6.96
2023-03-24T04:14:11.535Z,6.97
2023-03-24T04:19:40.776Z,6.86
2023-03-24T04:24:51.801Z,6.81
2023-03-24T04:30:16.519Z,6.90
2023-03-24T04:35:42.070Z,7.01
2023-03-24T04:40:58.790Z,7.00
2023-03-24T04:46:05.691Z,7.04
2023-03-24T04:51:33.110Z,7.26
2023-03-24T04:56:52.029Z,7.40
2023-03-24T05:02:03.001Z,7.54
2023-03-24T05:07:17.526Z,7.61
2023-03-24T05:12:24.984Z,7.68
2023-03-24T05:17:54.697Z,7.91
2023-03-24T05:23:02.910Z,8.18
2023-03-24T05:28:08.526Z,8.44
2023-03-24T05:33:14.360Z,8.72
2023-03-24T05:38:19.873Z,9.04
2023-03-24T05:43:27.881Z,9.41
2023-03-24T05:48:44.457Z,9.76
2023-03-24T05:53:52.698Z,10.04
2023-03-24T05:59:03.083Z,10.27
2023-03-24T06:04:36.024Z,10.52
2023-03-24T06:09:52.472Z,10.76
2023-03-24T06:14:59.054Z,10.99
2023-03-24T06:20:14.975Z,11.19
2023-03-24T06:25:28.582Z,11.34
2023-03-24T06:30:45.180Z,11.55
2023-03-24T06:35:52.533Z,11.79
2023-03-24T06:41:03.663Z,11.92
2023-03-24T06:46:10.986Z,11.96
2023-03-24T06:51:19.228Z,11.98
2023-03-24T06:56:25.326Z,11.98
2023-03-24T07:01:36.109Z,12.01
2023-03-24T07:07:19.708Z,12.05
2023-03-24T07:12:31.146Z,12.08
2023-03-24T07:17:36.988Z,12.11
2023-03-24T07:22:59.133Z,12.11
2023-03-24T07:28:05.207Z,12.26
2023-03-24T07:33:12.504Z,12.45
2023-03-24T07:38:19.556Z,12.57
2023-03-24T07:43:26.345Z,12.68
2023-03-24T07:48:47.707Z,12.81
2023-03-24T07:53:53.517Z,12.97
2023-03-24T07:59:14.623Z,13.17
2023-03-24T08:04:42.919Z,13.35
2023-03-24T08:09:57.825Z,13.33
2023-03-24T08:15:04.124Z,13.28
2023-03-24T08:20:15.160Z,13.24
2023-03-24T08:25:24.082Z,13.21
2023-03-24T08:30:30.488Z,13.19
2023-03-24T08:35:40.072Z,13.26
2023-03-24T08:40:45.940Z,13.38
2023-03-24T08:45:51.879Z,13.52
2023-03-24T08:50:57.909Z,13.77
2023-03-24T08:56:06.045Z,13.89
2023-03-24T09:01:12.493Z,13.72
2023-03-24T09:06:18.099Z,13.66
2023-03-24T09:11:24.691Z,13.57
2023-03-24T09:16:31.792Z,13.60
2023-03-24T09:21:38.507Z,14.00
2023-03-24T09:26:44.330Z,14.56
2023-03-24T09:31:51.962Z,15.40
2023-03-24T09:36:57.475Z,17.00
2023-03-24T09:42:06.027Z,19.24
2023-03-24T09:47:21.963Z,20.53
2023-03-24T09:52:33.913Z,20.48
2023-03-24T09:57:44.418Z,19.91
2023-03-24T10:02:52.157Z,19.37
2023-03-24T10:08:06.053Z,18.89
2023-03-24T10:13:21.340Z,18.44
2023-03-24T10:18:34.713Z,17.96
2023-03-24T10:23:48.537Z,17.62
2023-03-24T10:29:04.862Z,17.27
2023-03-24T10:34:13.252Z,17.12
2023-03-24T10:39:21.111Z,17.01
2023-03-24T10:44:31.704Z,16.94
2023-03-24T10:49:38.363Z,16.91
2023-03-24T10:54:56.461Z,16.91
2023-03-24T11:00:26.898Z,17.10
2023-03-24T11:05:35.408Z,17.21
2023-03-24T11:10:40.972Z,17.24
2023-03-24T11:16:04.374Z,17.27
2023-03-24T11:21:10.056Z,17.31
2023-03-24T11:26:18.198Z,17.10
2023-03-24T11:31:25.934Z,16.87
2023-03-24T11:36:46.847Z,16.79
2023-03-24T11:42:04.552Z,16.73
2023-03-24T11:47:13.085Z,16.67
2023-03-24T11:52:24.252Z,16.71
2023-03-24T11:57:47.542Z,16.93
2023-03-24T12:03:19.766Z,17.08
2023-03-24T12:08:36.918Z,16.99
2023-03-24T12:13:45.408Z,16.96
2023-03-24T12:19:08.615Z,16.98
2023-03-24T12:24:24.391Z,17.10
2023-03-24T12:29:48.414Z,17.24
2023-03-24T12:35:27.253Z,17.55
2023-03-24T12:40:59.875Z,18.25
2023-03-24T12:46:37.117Z,19.06
2023-03-24T12:52:07.398Z,19.65
2023-03-24T12:57:16.443Z,19.90
2023-03-24T13:02:30.526Z,20.10
2023-03-24T13:07:39.419Z,20.13
2023-03-24T13:12:51.356Z,19.90
2023-03-24T13:18:06.977Z,19.72
2023-03-24T13:23:32.294Z,19.70
2023-03-24T13:28:46.997Z,19.82
2023-03-24T13:33:54.687Z,20.07
2023-03-24T13:39:05.560Z,20.20
2023-03-24T13:44:22.666Z,20.15
2023-03-24T13:49:30.582Z,20.04
2023-03-24T13:54:38.973Z,19.97
2023-03-24T14:00:08.527Z,19.89
2023-03-24T14:05:32.109Z,19.95
2023-03-24T14:10:46.115Z,19.96
2023-03-24T14:15:53.588Z,19.88
2023-03-24T14:21:04.013Z,19.81
2023-03-24T14:26:12.745Z,19.79
2023-03-24T14:31:24.597Z,19.71
2023-03-24T14:36:33.079Z,19.62
2023-03-24T14:41:42.285Z,19.61
2023-03-24T14:46:50.337Z,19.59
2023-03-24T14:52:01.982Z,19.56
2023-03-24T14:57:08.959Z,19.57
2023-03-24T15:02:23.948Z,19.47
2023-03-24T15:07:29.460Z,19.26
2023-03-24T15:12:35.287Z,19.00
2023-03-24T15:17:44.401Z,18.78
2023-03-24T15:22:51.047Z,18.62
2023-03-24T15:28:00.466Z,18.55
2023-03-24T15:33:06.780Z,18.45
2023-03-24T15:38:29.206Z,18.34
2023-03-24T15:43:41.111Z,18.25
2023-03-24T15:48:48.327Z,18.14
2023-03-24T15:53:59.036Z,18.04
2023-03-24T15:59:15.581Z,17.99
2023-03-24T16:04:23.384Z,17.93
2023-03-24T16:09:38.942Z,17.84
2023-03-24T16:14:44.266Z,17.70
2023-03-24T16:19:50.198Z,17.59
2023-03-24T16:24:55.627Z,17.49
2023-03-24T16:30:01.963Z,17.39
2023-03-24T16:35:09.324Z,17.31
2023-03-24T16:40:25.713Z,17.22
2023-03-24T16:45:31.848Z,17.12
2023-03-24T16:50:40.911Z,17.02
2023-03-24T16:55:47.738Z,16.82
2023-03-24T17:00:55.069Z,16.21
2023-03-24T17:06:01.669Z,15.57
2023-03-24T17:11:11.270Z,15.16
2023-03-24T17:16:17.151Z,14.89
2023-03-24T17:21:23.810Z,14.67
2023-03-24T17:26:30.961Z,14.50
2023-03-24T17:31:37.667Z,14.36
2023-03-24T17:36:43.098Z,14.24
2023-03-24T17:41:48.504Z,14.17
2023-03-24T17:46:54.339Z,14.09
2023-03-24T17:51:59.812Z,14.02
2023-03-24T17:57:05.472Z,13.96
2023-03-24T18:02:13.800Z,13.89
2023-03-24T18:07:19.835Z,13.80
2023-03-24T18:12:26.171Z,13.75
2023-03-24T18:17:31.724Z,13.69
2023-03-24T18:22:40.769Z,13.62
2023-03-24T18:27:46.577Z,13.55
2023-03-24T18:32:52.199Z,13.53
2023-03-24T18:37:57.992Z,13.49
2023-03-24T18:43:03.489Z,13.42
2023-03-24T18:48:10.226Z,13.40
2023-03-24T18:53:16.129Z,13.36
2023-03-24T18:58:22.308Z,13.30
2023-03-24T19:03:29.012Z,13.29
2023-03-24T19:08:35.827Z,13.33
2023-03-24T19:13:41.566Z,13.32
2023-03-24T19:18:48.631Z,13.27
2023-03-24T19:23:54.469Z,13.27
2023-03-24T19:28:59.785Z,13.25
2023-03-24T19:34:05.261Z,13.22
2023-03-24T19:39:13.668Z,13.19
2023-03-24T19:44:19.252Z,13.19
2023-03-24T19:49:24.825Z,13.20
2023-03-24T19:54:30.666Z,13.17
2023-03-24T19:59:37.419Z,13.18
2023-03-24T20:04:43.329Z,13.19
2023-03-24T20:09:48.999Z,13.20
2023-03-24T20:14:54.903Z,13.16
2023-03-24T20:20:01.080Z,13.17
2023-03-24T20:25:08.812Z,13.17
2023-03-24T20:30:16.358Z,13.14
2023-03-24T20:35:22.628Z,13.06
2023-03-24T20:40:28.168Z,13.09
2023-03-24T20:45:33.674Z,13.16
2023-03-24T20:50:39.462Z,13.15
2023-03-24T20:55:49.055Z,13.05
2023-03-24T21:00:55.186Z,12.95
2023-03-24T21:06:01.468Z,12.91
2023-03-24T21:11:06.951Z,12.89
2023-03-24T21:16:13.769Z,12.85
2023-03-24T21:21:19.446Z,12.78
2023-03-24T21:26:25.812Z,12.74
2023-03-24T21:31:31.229Z,12.73
2023-03-24T21:36:38.597Z,12.69
2023-03-24T21:41:44.660Z,12.62
2023-03-24T21:46:50.078Z,12.58
2023-03-24T21:51:56.801Z,12.49
2023-03-24T21:57:04.082Z,12.29
2023-03-24T22:02:14.512Z,12.06
2023-03-24T22:07:22.535Z,11.88
2023-03-24T22:12:27.909Z,11.77
2023-03-24T22:17:33.396Z,11.67
2023-03-24T22:22:39.850Z,11.53
2023-03-24T22:27:46.225Z,11.46
2023-03-24T22:32:51.656Z,11.42
2023-03-24T22:37:57.209Z,11.36
2023-03-24T22:43:02.670Z,11.24
2023-03-24T22:48:08.439Z,11.00
2023-03-24T22:53:14.131Z,10.80
2023-03-24T22:58:19.578Z,10.69
2023-03-24T23:03:25.482Z,10.66
2023-03-24T23:08:32.649Z,10.60
2023-03-24T23:13:38.864Z,10.56
2023-03-24T23:18:44.618Z,10.52
2023-03-24T23:23:51.128Z,10.53
2023-03-24T23:28:57.219Z,10.51
2023-03-24T23:34:04.537Z,10.43
2023-03-24T23:39:10.646Z,10.33
2023-03-24T23:44:19.608Z,10.25
2023-03-24T23:49:25.567Z,10.24
2023-03-24T23:54:45.355Z,10.21
2023-03-24T23:59:53.153Z,10.11
